Time;durP1;ratioP1;P1;durP2;ratioP2;P2;SDS_P1;SDS_P2;PMS_P1;PMS_P2;Temp;Humidity;BMP_temperature;BMP_pressure;BME280_temperature;BME280_humidity;BME280_pressure;Samples;Min_cycle;Max_cycle;Signal;HPM_P1;HPM_P2
2023/02/23 00:01:41;;;;;;;73.70;32.40;;;;;;;2.55;78.55;100546.56;1474123;88;21818;-76
2023/02/23 00:04:08;;;;;;;58.30;30.67;;;;;;;2.56;78.42;100541.73;1483240;88;21651;-76
2023/02/23 00:06:36;;;;;;;77.13;30.93;;;;;;;2.58;78.28;100540.31;1469255;88;21721;-77
2023/02/23 00:09:23;;;;;;;70.17;30.30;;;;;;;2.57;79.62;100540.78;1476281;88;21553;-77
2023/02/23 00:11:53;;;;;;;61.87;29.87;;;;;;;2.54;80.36;100542.28;1471800;88;21628;-77
2023/02/23 00:14:26;;;;;;;55.13;29.63;;;;;;;2.53;79.47;100545.81;1469856;88;21819;-77
2023/02/23 00:16:55;;;;;;;57.77;28.33;;;;;;;2.56;79.05;100547.40;1470076;88;21434;-76
2023/02/23 00:19:23;;;;;;;56.83;27.07;;;;;;;2.62;78.82;100549.66;1486931;88;21611;-76
2023/02/23 00:21:49;;;;;;;49.13;26.23;;;;;;;2.60;78.79;100552.36;1478594;88;21484;-74
2023/02/23 00:24:19;;;;;;;55.20;26.20;;;;;;;2.59;79.29;100554.61;1473859;88;22227;-76
2023/02/23 00:26:47;;;;;;;48.43;23.83;;;;;;;2.61;78.38;100551.41;1471416;88;21746;-75
2023/02/23 00:29:17;;;;;;;50.70;24.13;;;;;;;2.64;78.33;100550.39;1463519;88;21478;-76
2023/02/23 00:31:45;;;;;;;66.37;29.40;;;;;;;2.65;78.24;100546.39;1457554;88;21748;-76
2023/02/23 00:34:19;;;;;;;48.10;24.83;;;;;;;2.67;78.79;100543.19;1478541;88;21371;-75
2023/02/23 00:36:44;;;;;;;49.57;24.73;;;;;;;2.64;78.96;100546.00;1467729;88;21516;-75
2023/02/23 00:39:20;;;;;;;51.13;25.33;;;;;;;2.63;79.03;100543.02;1473747;88;21606;-75
2023/02/23 00:41:51;;;;;;;54.93;24.80;;;;;;;2.65;78.96;100547.70;1470228;88;21586;-75
2023/02/23 00:44:20;;;;;;;46.80;23.43;;;;;;;2.68;79.60;100547.51;1468888;88;21471;-75
2023/02/23 00:46:50;;;;;;;48.77;24.90;;;;;;;2.74;78.79;100548.91;1478371;88;21369;-75
2023/02/23 00:49:15;;;;;;;54.03;25.00;;;;;;;2.80;78.42;100543.30;1473910;88;22495;-75
2023/02/23 00:51:41;;;;;;;63.13;27.50;;;;;;;2.86;78.53;100542.91;1470208;88;21544;-74
2023/02/23 00:54:11;;;;;;;56.23;24.50;;;;;;;2.90;78.59;100541.77;1476797;88;21578;-75
2023/02/23 00:56:39;;;;;;;57.30;25.70;;;;;;;2.91;78.28;100540.02;1476089;88;22927;-75
2023/02/23 00:59:05;;;;;;;63.53;26.20;;;;;;;2.91;78.41;100536.10;1470372;88;21692;-75
2023/02/23 01:01:32;;;;;;;53.03;27.00;;;;;;;2.88;78.83;100542.36;1471177;88;23191;-75
2023/02/23 01:04:01;;;;;;;46.53;25.93;;;;;;;2.86;77.89;100544.69;1476681;88;21557;-75
2023/02/23 01:06:27;;;;;;;52.07;25.83;;;;;;;2.85;77.71;100540.38;1475617;88;22631;-75
2023/02/23 01:08:56;;;;;;;55.03;25.63;;;;;;;2.84;78.19;100540.02;1471784;88;21608;-75
2023/02/23 01:11:27;;;;;;;49.67;23.83;;;;;;;2.83;78.48;100543.10;1473626;88;21757;-74
2023/02/23 01:13:56;;;;;;;56.73;23.25;;;;;;;2.84;78.28;100541.33;1479763;88;21718;-75
2023/02/23 01:16:28;;;;;;;44.13;21.80;;;;;;;2.85;78.45;100538.63;1470389;88;21289;-74
2023/02/23 01:18:57;;;;;;;40.43;20.40;;;;;;;2.90;78.28;100536.55;1475345;88;22743;-75
2023/02/23 01:21:29;;;;;;;54.33;25.90;;;;;;;2.93;78.81;100539.44;1466113;88;22501;-75
2023/02/23 01:23:56;;;;;;;54.50;27.63;;;;;;;2.96;77.99;100539.24;1473411;88;21853;-76
2023/02/23 01:26:26;;;;;;;54.63;24.57;;;;;;;2.99;77.66;100533.81;1471727;88;21614;-76
2023/02/23 01:28:56;;;;;;;44.98;22.65;;;;;;;2.99;77.96;100531.20;1477329;88;21639;-76
2023/02/23 01:31:28;;;;;;;51.70;23.70;;;;;;;2.97;78.18;100538.80;1467666;88;21444;-76
2023/02/23 01:33:57;;;;;;;55.43;24.70;;;;;;;2.94;77.61;100542.45;1467841;88;21484;-76
2023/02/23 01:36:31;;;;;;;53.73;24.73;;;;;;;2.91;77.01;100534.80;1476893;88;22708;-76
2023/02/23 01:38:57;;;;;;;49.50;23.80;;;;;;;2.91;77.34;100537.41;1466807;88;22476;-76
2023/02/23 01:41:26;;;;;;;46.93;23.33;;;;;;;2.87;77.66;100533.29;1484007;88;22656;-76
2023/02/23 01:44:04;;;;;;;37.83;20.53;;;;;;;2.86;78.16;100535.55;1475322;88;22418;-75
2023/02/23 01:46:34;;;;;;;42.60;21.30;;;;;;;2.85;79.01;100530.78;1473789;88;21630;-75
2023/02/23 01:49:02;;;;;;;47.60;22.13;;;;;;;2.85;79.40;100536.02;1472500;88;21642;-76
2023/02/23 01:51:43;;;;;;;41.90;21.20;;;;;;;2.89;78.83;100530.95;1471552;88;21599;-78
2023/02/23 01:54:14;;;;;;;44.83;22.02;;;;;;;2.90;78.54;100526.08;1451730;88;21580;-78
2023/02/23 01:56:48;;;;;;;43.90;21.75;;;;;;;2.88;78.99;100529.28;1457186;88;21480;-77
2023/02/23 01:59:16;;;;;;;44.97;22.13;;;;;;;2.83;78.77;100525.28;1490463;88;21392;-77
2023/02/23 02:01:43;;;;;;;49.27;24.03;;;;;;;2.81;78.52;100523.22;1466739;88;21669;-77
2023/02/23 02:04:15;;;;;;;46.43;22.33;;;;;;;2.78;78.60;100524.72;1472181;88;21597;-78
2023/02/23 02:06:39;;;;;;;47.53;23.67;;;;;;;2.74;78.06;100524.08;1475867;88;21749;-77
2023/02/23 02:09:16;;;;;;;63.67;23.90;;;;;;;2.73;78.57;100524.16;1466697;88;21550;-78
2023/02/23 02:11:43;;;;;;;40.43;21.73;;;;;;;2.70;78.76;100526.48;1474079;88;21782;-77
2023/02/23 02:14:17;;;;;;;46.10;21.97;;;;;;;2.70;78.70;100526.48;1471020;88;22764;-78
2023/02/23 02:17:04;;;;;;;39.40;18.77;;;;;;;2.68;78.35;100527.91;1476600;88;22500;-78
2023/02/23 02:20:25;;;;;;;34.80;17.97;;;;;;;2.69;78.42;100535.27;1475421;88;21642;-78
2023/02/23 02:22:54;;;;;;;51.50;19.33;;;;;;;2.69;77.99;100524.82;1472562;88;21840;-77
2023/02/23 02:25:51;;;;;;;35.63;18.20;;;;;;;2.68;78.30;100523.98;1475035;88;21597;-78
2023/02/23 02:28:29;;;;;;;52.70;18.83;;;;;;;2.66;78.31;100531.55;1469415;88;21650;-78
2023/02/23 02:31:19;;;;;;;32.90;17.13;;;;;;;2.64;78.06;100526.40;1472053;88;21648;-77
2023/02/23 02:33:57;;;;;;;33.27;16.93;;;;;;;2.63;77.79;100522.59;1472934;87;21558;-78
2023/02/23 02:37:02;;;;;;;31.07;16.27;;;;;;;2.56;78.57;100531.28;1471778;88;21667;-77
2023/02/23 02:39:52;;;;;;;31.77;15.80;;;;;;;2.49;77.93;100528.66;1471931;88;22496;-77
2023/02/23 02:42:34;;;;;;;30.17;15.27;;;;;;;2.44;78.64;100522.86;1476893;88;21707;-77
2023/02/23 02:45:30;;;;;;;33.03;16.27;;;;;;;2.37;78.62;100522.88;1478231;88;21625;-77
2023/02/23 02:48:30;;;;;;;34.70;15.73;;;;;;;2.36;78.28;100525.09;1467697;88;21599;-78
2023/02/23 02:51:24;;;;;;;35.20;16.97;;;;;;;2.28;79.30;100529.97;1475579;88;21727;-77
2023/02/23 02:53:56;;;;;;;36.60;15.93;;;;;;;2.16;79.43;100528.92;1478473;88;21713;-76
2023/02/23 02:56:26;;;;;;;37.87;17.23;;;;;;;2.10;78.55;100523.61;1478759;88;21674;-76
2023/02/23 02:58:53;;;;;;;36.47;16.50;;;;;;;2.02;79.02;100520.60;1465971;88;21569;-78
2023/02/23 04:18:04;;;;;;;35.50;16.73;;;;;;;0.48;81.62;100542.63;1467861;88;21492;-77
2023/02/23 04:20:31;;;;;;;35.73;17.77;;;;;;;0.43;82.11;100548.09;1469726;88;21304;-77
2023/02/23 04:22:58;;;;;;;40.15;16.62;;;;;;;0.39;81.57;100543.95;1478394;88;21363;-77
2023/02/23 04:25:25;;;;;;;40.85;17.77;;;;;;;0.35;81.99;100547.65;1475888;88;21503;-77
2023/02/23 04:27:51;;;;;;;33.92;14.95;;;;;;;0.33;81.50;100553.85;1475237;88;22361;-77
2023/02/23 04:30:24;;;;;;;31.12;15.55;;;;;;;0.25;82.79;100543.82;1469439;88;21377;-77
2023/02/23 04:32:46;;;;;;;36.30;15.85;;;;;;;0.22;81.62;100551.79;1472157;88;21628;-77
2023/02/23 04:35:13;;;;;;;28.45;15.98;;;;;;;0.23;81.07;100553.46;1466471;88;21414;-78
2023/02/23 04:37:39;;;;;;;31.27;17.17;;;;;;;0.19;81.11;100550.65;1471855;88;22261;-76
2023/02/23 04:40:07;;;;;;;33.73;15.50;;;;;;;0.19;81.09;100553.25;1472015;88;21407;-77
2023/02/23 04:42:33;;;;;;;30.60;14.93;;;;;;;0.17;81.61;100548.58;1489895;88;21289;-77
2023/02/23 04:45:00;;;;;;;34.85;17.40;;;;;;;0.13;81.85;100549.66;1474439;88;21304;-80
2023/02/23 04:47:26;;;;;;;35.73;15.70;;;;;;;0.10;82.14;100552.42;1482458;88;21399;-79
2023/02/23 04:49:53;;;;;;;33.33;15.48;;;;;;;0.07;82.67;100549.98;1476494;88;21987;-79
2023/02/23 04:52:19;;;;;;;35.05;14.70;;;;;;;0.06;82.27;100556.08;1472677;88;21458;-79
2023/02/23 04:54:45;;;;;;;37.50;17.07;;;;;;;0.05;81.98;100554.41;1430896;88;21430;-79
2023/02/23 04:57:11;;;;;;;30.80;15.95;;;;;;;0.03;81.84;100549.73;1477060;88;21488;-80
2023/02/23 04:59:38;;;;;;;33.35;14.68;;;;;;;-0.02;83.20;100553.42;1470790;88;22257;-79
2023/02/23 05:02:05;;;;;;;42.70;16.12;;;;;;;-0.09;83.65;100558.53;1475510;88;22405;-79
2023/02/23 05:04:34;;;;;;;34.53;15.35;;;;;;;-0.15;83.66;100554.94;1475243;88;21473;-80
2023/02/23 05:07:02;;;;;;;29.82;15.38;;;;;;;-0.16;83.35;100553.73;1477347;88;22161;-81
2023/02/23 05:09:29;;;;;;;28.38;15.00;;;;;;;-0.18;83.80;100551.19;1477626;88;21554;-82
2023/02/23 05:11:56;;;;;;;30.97;15.43;;;;;;;-0.21;85.16;100551.81;1478620;88;21333;-80
2023/02/23 05:14:22;;;;;;;39.83;17.85;;;;;;;-0.25;84.54;100549.83;1473331;88;21503;-79
2023/02/23 05:16:49;;;;;;;35.90;16.15;;;;;;;-0.26;84.19;100552.02;1448478;88;21303;-80
2023/02/23 05:19:15;;;;;;;33.28;15.20;;;;;;;-0.28;84.07;100548.68;1473759;88;22480;-80
2023/02/23 05:24:50;;;;;;;34.38;15.98;;;;;;;-0.37;86.22;100556.94;1475382;88;21267;-79
2023/02/23 05:27:16;;;;;;;41.70;16.77;;;;;;;-0.40;85.47;100563.55;1480281;88;21522;-79
2023/02/23 05:29:43;;;;;;;35.70;16.37;;;;;;;-0.41;85.37;100564.02;1475237;88;21429;-79
2023/02/23 05:32:09;;;;;;;33.78;17.23;;;;;;;-0.43;86.32;100569.78;1473004;88;21326;-80
2023/02/23 05:34:37;;;;;;;29.70;16.65;;;;;;;-0.44;85.60;100569.84;1461020;88;21547;-79
2023/02/23 05:37:04;;;;;;;28.83;15.18;;;;;;;-0.42;86.13;100571.91;1481654;88;21370;-78
2023/02/23 05:39:30;;;;;;;36.93;17.75;;;;;;;-0.38;85.23;100572.14;1474460;88;21363;-81
2023/02/23 05:41:57;;;;;;;29.35;15.83;;;;;;;-0.40;86.20;100570.06;1458708;88;22405;-81
2023/02/23 05:44:23;;;;;;;31.77;16.02;;;;;;;-0.38;85.67;100569.53;1471658;87;21281;-81
2023/02/23 05:46:50;;;;;;;34.65;16.23;;;;;;;-0.37;86.26;100572.55;1461130;88;21385;-79
2023/02/23 05:49:16;;;;;;;33.05;14.73;;;;;;;-0.36;86.02;100573.75;1472642;88;21871;-81
2023/02/23 05:51:42;;;;;;;33.75;15.53;;;;;;;-0.33;85.82;100579.27;1472541;88;21562;-80
2023/02/23 05:54:09;;;;;;;29.50;16.48;;;;;;;-0.30;85.91;100581.72;1464777;88;21348;-80
2023/02/23 05:56:35;;;;;;;61.18;18.25;;;;;;;-0.32;86.66;100583.54;1458235;88;22333;-79
2023/02/23 05:59:03;;;;;;;52.40;17.57;;;;;;;-0.33;87.38;100583.16;1466781;88;22316;-79
2023/02/23 06:01:30;;;;;;;44.88;17.23;;;;;;;-0.30;86.57;100589.05;1474316;88;21532;-79
2023/02/23 06:03:56;;;;;;;41.95;15.90;;;;;;;-0.25;86.47;100590.14;1471874;88;21363;-81
2023/02/23 06:06:24;;;;;;;43.80;17.95;;;;;;;-0.20;85.51;100599.00;1474995;88;22464;-80
2023/02/23 06:08:51;;;;;;;30.17;16.82;;;;;;;-0.15;85.51;100601.77;1476447;88;21399;-79
2023/02/23 06:11:18;;;;;;;33.18;15.83;;;;;;;-0.08;85.49;100604.47;1469563;88;22376;-79
2023/02/23 06:13:44;;;;;;;36.23;19.50;;;;;;;-0.01;86.12;100611.50;1477795;88;21392;-80
2023/02/23 06:16:10;;;;;;;40.85;18.27;;;;;;;0.07;86.48;100608.53;1477206;88;21479;-79
2023/02/23 06:18:36;;;;;;;66.15;29.15;;;;;;;0.15;86.00;100607.70;1472863;88;21274;-77
2023/02/23 06:21:03;;;;;;;56.05;24.77;;;;;;;0.25;85.60;100615.41;1476362;88;21589;-81
2023/02/23 06:23:31;;;;;;;61.20;28.65;;;;;;;0.36;85.18;100622.22;1476207;88;21466;-80
2023/02/23 06:25:58;;;;;;;56.37;26.95;;;;;;;0.43;85.25;100615.80;1481467;88;21607;-81
2023/02/23 06:28:27;;;;;;;71.85;29.02;;;;;;;0.49;84.93;100611.17;1468811;88;21348;-80
2023/02/23 06:30:55;;;;;;;58.48;27.37;;;;;;;0.58;85.00;100617.23;1474685;88;21532;-81
2023/02/23 06:33:21;;;;;;;63.17;30.15;;;;;;;0.67;84.96;100616.75;1475753;88;21385;-80
2023/02/23 06:35:48;;;;;;;79.22;38.88;;;;;;;0.76;84.68;100624.08;1473376;88;21340;-80
2023/02/23 06:38:14;;;;;;;81.22;37.50;;;;;;;0.85;84.76;100629.27;1475266;88;21400;-80
2023/02/23 06:40:42;;;;;;;107.35;32.08;;;;;;;0.95;85.03;100627.02;1477912;88;21983;-80
2023/02/23 06:43:08;;;;;;;69.53;32.63;;;;;;;1.02;84.62;100626.62;1470282;88;21363;-80
2023/02/23 06:45:38;;;;;;;75.17;32.63;;;;;;;1.09;84.35;100624.08;1476104;88;21803;-80
2023/02/23 06:48:04;;;;;;;69.23;34.20;;;;;;;1.21;83.93;100629.53;1477908;88;21704;-79
2023/02/23 06:50:31;;;;;;;74.23;33.40;;;;;;;1.30;84.06;100629.89;1472842;88;22496;-79
2023/02/23 06:52:57;;;;;;;78.83;31.10;;;;;;;1.41;83.80;100624.53;1472301;88;21815;-79
2023/02/23 06:55:24;;;;;;;93.73;31.00;;;;;;;1.53;83.43;100634.31;1456811;88;21582;-79
2023/02/23 06:57:53;;;;;;;92.73;33.60;;;;;;;1.64;83.24;100625.87;1474903;88;21490;-79
2023/02/23 07:00:20;;;;;;;75.27;29.97;;;;;;;1.71;83.01;100631.98;1465725;88;21543;-75
2023/02/23 07:02:47;;;;;;;82.70;29.70;;;;;;;1.80;83.00;100635.37;1468279;88;21672;-78
2023/02/23 07:05:14;;;;;;;63.80;26.50;;;;;;;1.87;82.96;100630.66;1397343;88;21521;-78
2023/02/23 07:07:40;;;;;;;57.90;23.67;;;;;;;1.95;82.64;100630.20;1398488;88;21736;-79
2023/02/23 07:10:07;;;;;;;57.27;26.57;;;;;;;2.01;82.61;100626.80;1398144;88;21463;-80
2023/02/23 07:12:33;;;;;;;52.07;24.97;;;;;;;2.14;82.47;100626.09;1403822;88;21623;-81
2023/02/23 07:14:59;;;;;;;47.70;23.93;;;;;;;2.33;82.59;100632.37;1398453;88;21395;-80
2023/02/23 07:17:26;;;;;;;49.57;23.83;;;;;;;2.44;81.91;100620.83;1398532;88;21554;-80
2023/02/23 07:19:52;;;;;;;47.50;19.90;;;;;;;2.58;81.39;100628.69;1398165;88;21777;-81
2023/02/23 07:22:18;;;;;;;45.93;21.93;;;;;;;2.65;80.79;100627.41;1404693;88;21333;-81
2023/02/23 07:24:45;;;;;;;38.73;19.17;;;;;;;2.76;80.87;100624.59;1558943;88;21546;-81
2023/02/23 07:27:11;;;;;;;40.33;18.83;;;;;;;2.86;80.74;100625.25;1397925;88;21678;-81
2023/02/23 07:29:38;;;;;;;46.23;22.03;;;;;;;3.00;80.29;100627.51;1398499;88;21351;-81
2023/02/23 07:32:06;;;;;;;57.70;27.30;;;;;;;3.19;79.91;100621.96;1404594;88;21646;-81
2023/02/23 07:34:32;;;;;;;71.50;30.87;;;;;;;3.39;79.70;100624.17;1559025;88;22312;-81
2023/02/23 07:36:58;;;;;;;79.67;35.73;;;;;;;3.59;79.47;100619.81;1398217;88;21725;-81
2023/02/23 07:39:25;;;;;;;68.47;32.33;;;;;;;3.77;78.05;100618.26;1398317;88;21490;-80
2023/02/23 07:41:51;;;;;;;66.27;30.17;;;;;;;4.11;76.42;100616.06;1404099;88;21552;-81
2023/02/23 07:44:18;;;;;;;48.30;23.63;;;;;;;4.11;76.42;100616.06;1398783;88;21850;-80
2023/02/23 07:46:45;;;;;;;38.43;20.53;;;;;;;4.28;75.46;100615.77;1381647;89;22412;-80
2023/02/23 07:49:12;;;;;;;40.90;21.10;;;;;;;4.63;73.34;100620.41;1397410;88;22004;-79
2023/02/23 07:56:02;;;;;;;40.87;20.07;;;;;;;4.81;72.42;100621.80;1559039;88;22918;-80
2023/02/23 07:58:30;;;;;;;37.17;19.63;;;;;;;5.01;72.74;100619.58;1550619;88;21948;-81
2023/02/23 08:00:56;;;;;;;36.17;20.73;;;;;;;5.15;71.69;100622.05;1396999;88;22004;-80
2023/02/23 08:03:23;;;;;;;39.30;19.00;;;;;;;5.30;71.37;100620.98;1403806;88;22110;-81
2023/02/23 08:05:49;;;;;;;40.10;16.17;;;;;;;5.41;70.63;100623.69;1398777;88;21178;-81
2023/02/23 08:08:15;;;;;;;38.63;16.83;;;;;;;5.53;69.27;100621.13;1398335;88;22195;-83
2023/02/23 08:10:41;;;;;;;32.17;17.33;;;;;;;5.65;68.65;100621.55;1398465;88;22089;-82
2023/02/23 08:13:07;;;;;;;35.07;16.03;;;;;;;5.78;68.22;100624.11;1528511;88;21296;-81
2023/02/23 08:15:34;;;;;;;26.77;14.50;;;;;;;5.89;67.75;100622.84;1398895;88;21252;-81
2023/02/23 08:18:00;;;;;;;29.60;15.17;;;;;;;6.01;67.29;100627.25;1398329;88;22274;-81
2023/02/23 08:20:26;;;;;;;24.90;14.23;;;;;;;6.10;65.86;100625.73;1398629;88;21245;-81
2023/02/23 08:22:54;;;;;;;33.37;16.17;;;;;;;6.16;65.15;100623.96;1403810;88;21509;-81
2023/02/23 08:25:21;;;;;;;30.00;14.83;;;;;;;6.32;66.33;100623.16;1396231;88;22155;-81
2023/02/23 08:27:50;;;;;;;30.13;14.37;;;;;;;6.44;64.75;100627.13;1519346;88;21237;-82
2023/02/23 08:30:18;;;;;;;31.90;15.67;;;;;;;6.55;64.32;100627.16;1395698;88;21259;-81
2023/02/23 08:32:44;;;;;;;37.83;16.80;;;;;;;6.66;64.74;100624.55;1432903;88;21466;-82
2023/02/23 08:35:10;;;;;;;36.50;17.67;;;;;;;6.77;64.33;100628.98;1468708;88;22286;-82
2023/02/23 08:37:36;;;;;;;28.27;16.10;;;;;;;6.88;63.82;100625.54;1473083;88;21289;-81
2023/02/23 08:40:03;;;;;;;33.43;16.93;;;;;;;6.92;61.90;100622.53;1471347;88;21357;-80
2023/02/23 08:42:30;;;;;;;32.37;16.33;;;;;;;7.04;61.80;100628.62;1475164;88;21407;-80
2023/02/23 08:44:56;;;;;;;32.77;14.77;;;;;;;7.14;62.92;100624.33;1476924;88;21378;-81
2023/02/23 08:47:23;;;;;;;32.97;14.97;;;;;;;7.17;61.26;100625.41;1473173;88;21559;-83
2023/02/23 08:49:50;;;;;;;34.97;16.37;;;;;;;7.32;62.09;100622.52;1475316;88;21341;-86
2023/02/23 08:52:17;;;;;;;29.73;12.60;;;;;;;7.44;60.85;100622.85;1474570;88;21499;-80
2023/02/23 08:54:43;;;;;;;28.87;14.30;;;;;;;7.53;57.94;100626.55;1472348;88;22192;-79
2023/02/23 08:57:09;;;;;;;26.17;13.97;;;;;;;7.64;60.46;100623.41;1479939;88;21393;-82
2023/02/23 08:59:36;;;;;;;25.70;14.83;;;;;;;7.76;60.25;100626.00;1477365;88;21348;-79
2023/02/23 09:02:02;;;;;;;24.30;12.50;;;;;;;7.88;60.69;100623.68;1469027;88;21385;-81
2023/02/23 09:04:33;;;;;;;29.80;14.47;;;;;;;7.98;58.77;100615.39;1474236;88;21536;-80
2023/02/23 09:07:00;;;;;;;23.22;11.48;;;;;;;8.08;58.04;100622.88;1557089;88;21355;-80
2023/02/23 09:09:26;;;;;;;28.07;12.73;;;;;;;8.19;58.69;100622.00;1397866;88;21518;-81
2023/02/23 09:11:53;;;;;;;25.63;12.20;;;;;;;8.32;57.86;100628.42;1403909;88;21253;-80
2023/02/23 09:14:20;;;;;;;22.93;10.90;;;;;;;8.44;57.83;100632.69;1539674;88;21135;-79
2023/02/23 09:16:46;;;;;;;22.83;12.57;;;;;;;8.57;57.49;100624.11;1398389;88;21208;-80
2023/02/23 09:19:13;;;;;;;23.50;11.60;;;;;;;8.75;57.26;100626.15;1398171;88;21403;-77
2023/02/23 09:21:40;;;;;;;20.53;11.13;;;;;;;8.85;57.05;100623.55;1403133;88;22045;-81
2023/02/23 09:24:08;;;;;;;22.60;11.33;;;;;;;8.95;54.62;100620.48;1395594;88;22133;-81
2023/02/23 09:26:38;;;;;;;23.13;11.17;;;;;;;9.15;56.07;100625.33;1399942;88;21297;-80
2023/02/23 09:29:02;;;;;;;29.10;11.93;;;;;;;9.24;52.70;100624.55;1396216;88;22296;-81
2023/02/23 09:31:29;;;;;;;22.57;10.00;;;;;;;9.42;54.98;100626.06;1403703;88;21319;-81
2023/02/23 09:33:55;;;;;;;20.87;11.83;;;;;;;9.64;53.11;100619.72;1558964;88;21268;-82
2023/02/23 09:36:24;;;;;;;17.87;10.57;;;;;;;9.96;53.53;100622.10;1398286;88;21253;-81
2023/02/23 09:38:54;;;;;;;21.43;11.07;;;;;;;10.33;54.08;100624.08;1395280;88;21367;-80
2023/02/23 09:41:32;;;;;;;24.40;12.63;;;;;;;10.09;46.33;100622.64;1397213;88;21252;-80
2023/02/23 09:44:35;;;;;;;21.90;11.27;;;;;;;10.39;50.31;100620.36;1558926;88;21334;-80
2023/02/23 09:47:22;;;;;;;24.03;12.90;;;;;;;10.81;51.03;100619.97;1558938;88;21208;-80
2023/02/23 09:49:50;;;;;;;22.77;10.27;;;;;;;11.26;50.68;100619.23;1559027;88;21202;-80
2023/02/23 09:52:24;;;;;;;18.57;9.47;;;;;;;11.44;48.25;100621.09;1402169;88;21474;-80
2023/02/23 09:54:51;;;;;;;20.83;10.37;;;;;;;11.82;48.64;100613.86;1397481;88;21319;-80
2023/02/23 09:57:23;;;;;;;17.57;8.93;;;;;;;12.08;47.80;100620.59;1403883;88;21231;-86
2023/02/23 09:59:49;;;;;;;17.50;9.43;;;;;;;12.39;45.02;100619.69;1558941;88;21215;-85
2023/02/23 10:02:33;;;;;;;19.93;11.23;;;;;;;12.71;46.59;100619.57;1404752;88;21411;-86
2023/02/23 10:05:10;;;;;;;18.53;8.73;;;;;;;12.90;44.75;100620.69;1556049;88;21326;-85
2023/02/23 10:07:56;;;;;;;19.13;10.20;;;;;;;13.18;45.49;100625.31;1542802;88;21334;-84
2023/02/23 10:10:31;;;;;;;21.33;10.17;;;;;;;13.29;44.62;100618.89;1396724;88;21282;-83
2023/02/23 10:13:15;;;;;;;18.90;10.77;;;;;;;13.64;44.38;100617.84;1477424;88;22439;-85
2023/02/23 10:15:50;;;;;;;24.03;12.33;;;;;;;13.95;41.62;100617.21;1474331;88;21386;-85
2023/02/23 10:18:32;;;;;;;17.70;9.43;;;;;;;14.11;40.77;100615.08;1468495;88;21521;-85
2023/02/23 10:21:16;;;;;;;16.80;9.10;;;;;;;14.43;42.49;100608.39;1473949;88;21480;-87
2023/02/23 10:24:09;;;;;;;20.83;9.33;;;;;;;14.66;41.77;100613.88;1472564;88;22332;-88
2023/02/23 10:27:00;;;;;;;17.67;8.23;;;;;;;14.77;40.41;100606.04;1476084;88;21503;-86
2023/02/23 10:29:33;;;;;;;20.20;10.47;;;;;;;15.06;41.79;100612.11;1452524;88;21503;-91
2023/02/23 10:32:30;;;;;;;14.17;7.30;;;;;;;15.31;40.73;100604.84;1474237;88;21443;-90
2023/02/23 10:34:56;;;;;;;13.07;7.23;;;;;;;14.49;35.74;100606.06;1473746;88;21363;-91
2023/02/23 10:37:24;;;;;;;13.27;8.50;;;;;;;13.45;36.66;100603.00;1474314;88;21507;-91
2023/02/23 10:39:51;;;;;;;16.07;8.47;;;;;;;13.82;39.06;100607.07;1474309;88;21370;-89
2023/02/23 10:42:29;;;;;;;14.93;8.37;;;;;;;14.16;40.60;100587.47;1474132;88;21391;-91
2023/02/23 10:44:57;;;;;;;18.43;9.53;;;;;;;14.15;40.20;100588.45;1479544;88;21400;-88
2023/02/23 10:47:27;;;;;;;16.83;8.03;;;;;;;14.40;39.71;100587.43;1475046;88;21297;-89
2023/02/23 10:49:55;;;;;;;;;;;;;;;14.07;37.01;100587.11;1477319;88;21437;-80
2023/02/23 10:52:32;;;;;;;18.20;9.23;;;;;;;14.63;37.32;100581.44;1469397;88;20438;-80
2023/02/23 10:54:59;;;;;;;18.60;10.20;;;;;;;14.93;39.71;100581.67;1473979;88;21303;-81
2023/02/23 10:57:31;;;;;;;15.23;8.90;;;;;;;15.01;36.66;100574.98;1473203;88;21348;-81
2023/02/23 11:00:19;;;;;;;17.17;9.33;;;;;;;14.84;37.11;100575.54;1394008;88;21289;-83
2023/02/23 11:02:46;;;;;;;19.63;9.53;;;;;;;15.16;39.03;100569.24;1464442;88;21348;-81
2023/02/23 11:05:36;;;;;;;16.23;8.80;;;;;;;15.33;37.54;100573.52;1396628;88;21467;-81
2023/02/23 11:10:28;;;;;;;22.97;10.83;;;;;;;15.68;38.67;100560.66;1510475;85;26141;-81
2023/02/23 11:12:54;;;;;;;16.82;8.88;;;;;;;15.77;38.19;100558.76;1486239;87;21477;-81
2023/02/23 11:15:28;;;;;;;22.75;8.70;;;;;;;15.60;33.80;100555.34;1478689;87;22051;-80
2023/02/23 11:17:58;;;;;;;22.25;9.25;;;;;;;15.79;36.70;100557.58;1482233;87;21448;-80
2023/02/23 11:20:38;;;;;;;23.32;11.97;;;;;;;15.84;35.37;100556.20;1568135;87;21595;-81
2023/02/23 11:23:30;;;;;;;24.18;9.60;;;;;;;15.88;37.34;100550.81;1561008;87;21529;-81
2023/02/23 11:26:01;;;;;;;16.70;9.35;;;;;;;15.72;36.94;100545.94;1568595;88;21346;-81
2023/02/23 11:28:35;;;;;;;21.42;11.83;;;;;;;15.72;37.17;100537.94;1421835;87;21419;-81
2023/02/23 11:31:18;;;;;;;21.95;10.55;;;;;;;15.86;37.94;100540.84;1568671;87;21471;-79
2023/02/23 11:33:46;;;;;;;19.30;10.13;;;;;;;15.89;35.45;100537.31;1562828;87;21552;-81
2023/02/23 11:36:32;;;;;;;13.78;8.73;;;;;;;15.86;37.09;100533.66;1570044;87;22189;-79
2023/02/23 11:39:15;;;;;;;18.40;9.55;;;;;;;15.65;36.23;100536.97;1570200;88;21412;-80
2023/02/23 11:41:42;;;;;;;18.40;9.85;;;;;;;15.65;35.73;100530.30;1403250;89;21441;-79
2023/02/23 11:44:21;;;;;;;15.65;8.33;;;;;;;15.37;35.89;100530.49;1413045;88;21727;-80
2023/02/23 11:46:50;;;;;;;19.60;9.38;;;;;;;14.73;35.57;100526.14;1570215;87;21331;-81
2023/02/23 11:49:25;;;;;;;16.45;9.35;;;;;;;14.89;37.25;100524.73;1475767;88;21754;-81
2023/02/23 11:51:53;;;;;;;22.55;9.90;;;;;;;15.19;37.43;100520.94;1483494;87;21404;-81
2023/02/23 11:54:32;;;;;;;19.50;9.40;;;;;;;14.83;37.02;100524.09;1490224;88;21485;-81
2023/02/23 11:57:01;;;;;;;23.57;10.90;;;;;;;14.80;35.81;100520.95;1484917;87;21433;-80
2023/02/23 11:59:34;;;;;;;17.15;8.48;;;;;;;14.79;37.71;100517.45;1568572;87;21374;-81
2023/02/23 12:02:24;;;;;;;20.60;9.17;;;;;;;14.04;37.88;100524.91;1402774;88;21360;-80
2023/02/23 12:05:02;;;;;;;17.43;8.37;;;;;;;13.25;38.08;100522.70;1570043;87;21486;-80
2023/02/23 12:07:59;;;;;;;20.53;9.80;;;;;;;13.69;38.58;100513.61;1403638;88;21382;-79
2023/02/23 12:10:39;;;;;;;16.17;8.67;;;;;;;13.66;39.48;100511.29;1466836;87;21561;-80
2023/02/23 12:13:29;;;;;;;15.53;8.20;;;;;;;13.49;38.97;100518.41;1401234;88;21463;-83
2023/02/23 12:16:22;;;;;;;16.00;9.30;;;;;;;13.23;38.59;100514.52;1402146;88;22470;-83
2023/02/23 12:19:10;;;;;;;15.60;8.13;;;;;;;13.59;39.67;100513.79;1394885;89;21375;-83
2023/02/23 12:21:49;;;;;;;18.57;8.60;;;;;;;13.23;38.91;100507.87;1559371;87;22205;-83
2023/02/23 12:24:32;;;;;;;19.17;8.13;;;;;;;13.40;39.18;100510.10;1559369;87;22101;-83
2023/02/23 12:27:21;;;;;;;17.40;8.67;;;;;;;13.37;39.41;100507.27;1521358;87;22344;-84
2023/02/23 12:30:23;;;;;;;22.00;8.83;;;;;;;13.53;39.52;100502.48;1468256;88;22601;-83
2023/02/23 12:33:03;;;;;;;14.33;6.57;;;;;;;13.91;40.06;100496.16;1473123;88;21449;-81
2023/02/23 12:35:50;;;;;;;19.93;7.40;;;;;;;13.96;38.86;100502.65;1476384;87;21523;-83
2023/02/23 12:38:40;;;;;;;14.27;7.53;;;;;;;13.74;38.57;100499.33;1470511;87;21457;-84
2023/02/23 12:41:40;;;;;;;13.70;6.67;;;;;;;13.86;39.02;100493.99;1471250;88;22403;-83
2023/02/23 12:44:41;;;;;;;17.07;7.22;;;;;;;13.75;38.66;100491.67;1476039;88;21485;-83
2023/02/23 12:47:23;;;;;;;13.47;7.23;;;;;;;13.50;38.34;100482.38;1558464;87;21449;-83
2023/02/23 12:50:03;;;;;;;14.43;6.80;;;;;;;13.26;39.70;100491.63;1437873;87;21442;-81
2023/02/23 12:52:30;;;;;;;27.17;8.93;;;;;;;13.19;39.91;100482.13;1461993;87;21567;-83
2023/02/23 12:54:56;;;;;;;;;;;;;;;13.28;40.32;100479.84;1396160;89;21621;-84
2023/02/23 12:57:38;;;;;;;16.77;7.47;;;;;;;13.63;40.57;100479.70;1399047;87;20230;-84
2023/02/23 13:00:29;;;;;;;15.10;6.83;;;;;;;13.97;40.17;100477.69;1559188;87;22286;-83
2023/02/23 13:03:47;;;;;;;15.60;6.83;;;;;;;13.81;39.07;100475.06;1475590;88;21456;-84
2023/02/23 13:06:18;;;;;;;15.83;7.80;;;;;;;13.76;39.05;100474.73;1467554;87;21627;-83